Terminal Aerodrome Forecast
Issued by NWS Tampa Bay Area, FL

Home | Current Version | Previous Version | Text Only | Print | Product List | Glossary Off
Versions: 1 2 3 4 5 6 7 8 9 10 11 12

000
FTUS42 KTBW 241744
TAFSRQ
TAF
KSRQ 241744Z 2418/2518 14008KT P6SM SCT030 BKN050
     FM250200 14003KT P6SM SCT060
     FM251000 VRB04KT 6SM BR FEW015 FEW060
     FM251600 17009KT P6SM SCT025 SCT250=

USA.gov is the U.S. government's official web portal to all federal, state and local government web resources and services.